Richmond North's Hourly Summary for Thursday, July 5, 2018
Hour Temp
(f)
RH
(%)
Solar Rad.
(MJ/m2)
Rainfall
(in)
Wind
(mph)
7/5/2018 12:00 AM 71 95 0 0 0
7/5/2018 1:00 AM 71 96 0 0 0.11
7/5/2018 2:00 AM 72 96 0 0 0.68
7/5/2018 3:00 AM 72 96 0 0 0.47
7/5/2018 4:00 AM 70 97 0 0 0
7/5/2018 5:00 AM 69 98 0 0 0
7/5/2018 6:00 AM 71 98 0.05 0 0.4
7/5/2018 7:00 AM 74 90 0.52 0 2.57
7/5/2018 8:00 AM 77 83 1.14 0 3.64
7/5/2018 9:00 AM 81 70 1.6 0 3.79
7/5/2018 10:00 AM 84 65 2.33 0 3.49
7/5/2018 11:00 AM 85 56 2.56 0 4.21
7/5/2018 12:00 PM 87 52 3.2 0 5.11
7/5/2018 1:00 PM 88 53 2.45 0 5.15
7/5/2018 2:00 PM 81 60 1.97 0 3.77
7/5/2018 3:00 PM 86 61 3.19 0 4.51
7/5/2018 4:00 PM 86 58 2.39 0 3.28
7/5/2018 5:00 PM 87 56 1.77 0 2.44
7/5/2018 6:00 PM 87 56 1.13 0 1.21
7/5/2018 7:00 PM 86 61 0.4 0 0
7/5/2018 8:00 PM 81 74 0.03 0 0
7/5/2018 9:00 PM 79 76 0 0 1.19
7/5/2018 10:00 PM 80 74 0 0 3.5
7/5/2018 11:00 PM 78 76 0 0 2.29
Data Summary 79 74 24.73 0.00 2.16